createdAt,value
2022-12-06T00:01:24.505Z,5.07
2022-12-06T00:03:56.904Z,5.97
2022-12-06T00:06:25.806Z,6.68
2022-12-06T00:08:53.584Z,5.20
2022-12-06T00:11:22.324Z,7.80
2022-12-06T00:13:53.441Z,6.95
2022-12-06T00:16:20.990Z,6.85
2022-12-06T00:18:48.340Z,7.07
2022-12-06T00:21:17.448Z,5.63
2022-12-06T00:23:48.948Z,5.30
2022-12-06T00:26:16.632Z,4.80
2022-12-06T00:28:44.114Z,6.63
2022-12-06T00:31:14.288Z,6.78
2022-12-06T00:33:41.685Z,4.45
2022-12-06T00:36:11.455Z,5.20
2022-12-06T00:38:39.089Z,3.65
2022-12-06T00:41:07.498Z,3.53
2022-12-06T00:43:36.263Z,4.25
2022-12-06T00:46:04.149Z,6.03
2022-12-06T00:48:31.706Z,7.25
2022-12-06T00:50:59.430Z,5.00
2022-12-06T00:53:27.441Z,5.40
2022-12-06T00:55:58.005Z,7.40
2022-12-06T00:58:25.591Z,7.97
2022-12-06T01:00:53.025Z,7.38
2022-12-06T01:03:20.692Z,7.50
2022-12-06T01:05:50.180Z,3.88
2022-12-06T01:08:18.967Z,5.43
2022-12-06T01:10:56.033Z,3.55
2022-12-06T01:13:23.355Z,4.97
2022-12-06T01:15:50.776Z,5.75
2022-12-06T01:18:18.383Z,4.22
2022-12-06T01:20:46.885Z,7.07
2022-12-06T01:23:15.057Z,4.78
2022-12-06T01:25:52.782Z,5.05
2022-12-06T01:28:20.105Z,4.47
2022-12-06T01:30:47.918Z,4.43
2022-12-06T01:33:16.771Z,5.38
2022-12-06T01:35:43.997Z,4.95
2022-12-06T01:38:12.493Z,4.75
2022-12-06T01:40:50.073Z,3.85
2022-12-06T01:43:34.209Z,6.68
2022-12-06T01:46:05.040Z,4.68
2022-12-06T01:48:33.262Z,4.10
2022-12-06T01:51:01.043Z,3.83
2022-12-06T01:53:28.807Z,3.58
2022-12-06T01:55:56.172Z,4.22
2022-12-06T01:58:28.305Z,4.57
2022-12-06T02:00:55.999Z,3.85
2022-12-06T02:03:24.882Z,7.72
2022-12-06T02:05:52.609Z,5.25
2022-12-06T02:08:21.221Z,4.57
2022-12-06T02:10:48.791Z,6.53
2022-12-06T02:13:16.189Z,5.10
2022-12-06T02:15:55.586Z,7.15
2022-12-06T02:18:49.446Z,5.00
2022-12-06T02:21:28.851Z,4.28
2022-12-06T02:23:59.222Z,7.38
2022-12-06T02:26:52.724Z,8.93
2022-12-06T02:29:25.496Z,5.03
2022-12-06T02:31:58.260Z,7.18
2022-12-06T02:34:35.187Z,5.82
2022-12-06T02:37:10.383Z,4.25
2022-12-06T02:39:39.538Z,7.18
2022-12-06T02:42:09.180Z,7.13
2022-12-06T02:44:40.587Z,4.90
2022-12-06T02:47:09.543Z,7.78
2022-12-06T02:49:38.480Z,4.47
2022-12-06T02:52:06.893Z,7.30
2022-12-06T02:54:34.214Z,7.22
2022-12-06T02:57:01.777Z,5.32
2022-12-06T02:59:29.197Z,5.47
2022-12-06T03:01:58.235Z,5.50
2022-12-06T03:04:34.401Z,6.32
2022-12-06T03:07:20.102Z,8.55
2022-12-06T03:09:58.421Z,8.27
2022-12-06T03:12:28.845Z,5.72
2022-12-06T03:15:01.916Z,4.70
2022-12-06T03:17:35.136Z,4.95
2022-12-06T03:20:14.934Z,5.40
2022-12-06T03:22:45.727Z,5.70
2022-12-06T03:25:13.693Z,5.22
2022-12-06T03:27:42.281Z,6.18
2022-12-06T03:30:12.042Z,8.45
2022-12-06T03:32:41.340Z,6.13
2022-12-06T03:35:11.088Z,7.70
2022-12-06T03:37:39.740Z,5.25
2022-12-06T03:40:07.210Z,6.90
2022-12-06T03:42:34.885Z,5.43
2022-12-06T03:45:02.776Z,5.63
2022-12-06T03:47:37.450Z,5.70
2022-12-06T03:50:25.833Z,4.07
2022-12-06T03:52:53.578Z,8.32
2022-12-06T03:55:20.935Z,5.28
2022-12-06T03:57:48.346Z,4.95
2022-12-06T04:00:16.761Z,9.52
2022-12-06T04:02:44.141Z,7.68
2022-12-06T04:05:11.605Z,4.80
2022-12-06T04:07:39.175Z,7.18
2022-12-06T04:10:06.888Z,6.00
2022-12-06T04:12:54.259Z,5.30
2022-12-06T04:15:22.667Z,8.77
2022-12-06T04:18:08.587Z,5.50
2022-12-06T04:20:54.866Z,10.00
2022-12-06T04:23:22.564Z,6.43
2022-12-06T04:25:49.918Z,5.90
2022-12-06T04:28:36.060Z,5.65
2022-12-06T04:31:22.727Z,5.57
2022-12-06T04:34:09.675Z,5.20
2022-12-06T04:36:56.955Z,6.35
2022-12-06T04:39:24.714Z,7.30
2022-12-06T04:42:14.191Z,5.53
2022-12-06T04:44:41.672Z,4.90
2022-12-06T04:47:09.119Z,7.20
2022-12-06T04:49:36.996Z,10.63
2022-12-06T04:52:04.943Z,4.78
2022-12-06T04:54:32.640Z,6.95
2022-12-06T04:57:00.115Z,6.28
2022-12-06T04:59:28.670Z,4.82
2022-12-06T05:01:56.529Z,6.20
2022-12-06T05:04:24.203Z,6.88
2022-12-06T05:06:52.735Z,4.10
2022-12-06T05:09:20.174Z,7.28
2022-12-06T05:11:47.425Z,5.20
2022-12-06T05:14:14.882Z,4.70
2022-12-06T05:16:42.207Z,6.50
2022-12-06T05:19:09.654Z,7.20
2022-12-06T05:21:37.053Z,3.95
2022-12-06T05:24:04.406Z,4.35
2022-12-06T05:26:31.713Z,5.53
2022-12-06T05:28:59.416Z,4.78
2022-12-06T05:31:27.204Z,5.88
2022-12-06T05:33:54.630Z,5.47
2022-12-06T05:36:26.464Z,4.53
2022-12-06T05:38:54.098Z,5.90
2022-12-06T05:41:22.059Z,4.40
2022-12-06T05:43:49.982Z,5.47
2022-12-06T05:46:17.514Z,5.70
2022-12-06T05:48:44.896Z,6.93
2022-12-06T05:51:12.357Z,3.75
2022-12-06T05:53:40.813Z,5.93
2022-12-06T05:56:12.817Z,4.15
2022-12-06T05:58:40.625Z,4.93
2022-12-06T06:01:08.874Z,6.88
2022-12-06T06:03:38.191Z,5.78
2022-12-06T06:06:08.690Z,4.82
2022-12-06T06:08:35.931Z,4.68
2022-12-06T06:11:03.379Z,6.88
2022-12-06T06:13:30.802Z,12.50
2022-12-06T06:15:58.086Z,5.25
2022-12-06T06:18:25.500Z,8.00
2022-12-06T06:20:54.058Z,6.43
2022-12-06T06:23:22.263Z,9.00
2022-12-06T06:25:50.641Z,9.73
2022-12-06T06:28:18.246Z,7.30
2022-12-06T06:30:45.643Z,7.32
2022-12-06T06:33:13.264Z,5.45
2022-12-06T06:35:41.284Z,8.10
2022-12-06T06:38:08.817Z,7.10
2022-12-06T06:40:36.488Z,8.13
2022-12-06T06:43:18.606Z,7.50
2022-12-06T06:45:53.840Z,6.53
2022-12-06T06:50:52.648Z,4.50
2022-12-06T06:53:25.231Z,5.63
2022-12-06T06:55:54.063Z,4.47
2022-12-06T06:58:22.161Z,6.85
2022-12-06T07:00:54.034Z,8.65
2022-12-06T07:03:24.881Z,8.40
2022-12-06T07:05:53.486Z,7.50
2022-12-06T07:08:21.125Z,6.22
2022-12-06T07:10:49.019Z,6.40
2022-12-06T07:13:17.240Z,6.63
2022-12-06T07:15:44.725Z,6.43
2022-12-06T07:18:18.599Z,4.30
2022-12-06T07:20:50.462Z,4.75
2022-12-06T07:23:17.789Z,5.68
2022-12-06T07:25:45.068Z,5.50
2022-12-06T07:28:12.500Z,5.38
2022-12-06T07:30:39.910Z,5.30
2022-12-06T07:33:07.266Z,5.22
2022-12-06T07:36:10.422Z,7.80
2022-12-06T07:38:21.975Z,7.90
2022-12-06T07:41:04.518Z,5.80
2022-12-06T07:43:51.370Z,5.45
2022-12-06T07:46:18.811Z,6.30
2022-12-06T07:48:46.215Z,5.13
2022-12-06T07:51:13.529Z,4.28
2022-12-06T07:53:40.784Z,6.85
2022-12-06T07:56:08.995Z,5.55
2022-12-06T07:58:36.244Z,6.68
2022-12-06T08:01:05.324Z,4.18
2022-12-06T08:03:32.659Z,7.57
2022-12-06T08:06:00.234Z,5.32
2022-12-06T08:08:29.052Z,38.30
2022-12-06T08:11:00.271Z,31.58
2022-12-06T08:13:28.452Z,25.45
2022-12-06T08:15:56.194Z,16.08
2022-12-06T08:18:23.645Z,21.83
2022-12-06T08:20:51.234Z,26.08
2022-12-06T08:23:18.617Z,10.82
2022-12-06T08:25:46.387Z,29.65
2022-12-06T08:28:14.084Z,26.30
2022-12-06T08:30:41.540Z,19.70
2022-12-06T08:33:08.961Z,15.05
2022-12-06T08:35:39.091Z,6.70
2022-12-06T08:38:06.464Z,7.35
2022-12-06T08:40:33.792Z,9.30
2022-12-06T08:43:01.259Z,11.68
2022-12-06T08:45:28.521Z,10.50
2022-12-06T08:47:55.844Z,9.43
2022-12-06T08:50:23.288Z,7.57
2022-12-06T08:52:51.077Z,8.07
2022-12-06T08:55:18.563Z,8.95
2022-12-06T08:57:46.082Z,7.57
2022-12-06T09:00:13.785Z,7.90
2022-12-06T09:02:41.817Z,7.38
2022-12-06T09:05:09.734Z,9.52
2022-12-06T09:07:37.098Z,10.50
2022-12-06T09:10:05.640Z,10.85
2022-12-06T09:12:33.178Z,11.63
2022-12-06T09:15:00.548Z,9.63
2022-12-06T09:17:28.017Z,10.30
2022-12-06T09:19:56.853Z,12.80
2022-12-06T09:22:25.946Z,15.93
2022-12-06T09:24:53.330Z,12.23
2022-12-06T09:27:20.793Z,9.95
2022-12-06T09:29:48.616Z,7.80
2022-12-06T09:32:15.958Z,7.47
2022-12-06T09:34:43.278Z,7.28
2022-12-06T09:37:12.635Z,7.65
2022-12-06T09:39:49.000Z,5.90
2022-12-06T09:42:37.841Z,5.68
2022-12-06T09:45:25.691Z,4.60
2022-12-06T09:47:58.969Z,2.45
2022-12-06T09:50:32.260Z,4.60
2022-12-06T09:52:59.752Z,4.55
2022-12-06T09:55:33.667Z,4.38
2022-12-06T09:58:09.508Z,3.90
2022-12-06T10:00:46.205Z,5.97
2022-12-06T10:03:31.815Z,3.00
2022-12-06T10:06:01.498Z,4.05
2022-12-06T10:08:44.133Z,3.80
2022-12-06T10:11:29.690Z,5.75
2022-12-06T10:14:03.898Z,4.50
2022-12-06T10:16:31.563Z,4.55
2022-12-06T10:19:15.532Z,5.95
2022-12-06T10:21:49.634Z,3.97
2022-12-06T10:24:21.445Z,3.92
2022-12-06T10:26:55.616Z,5.22
2022-12-06T10:29:29.478Z,5.80
2022-12-06T10:31:58.212Z,2.85
2022-12-06T10:34:28.294Z,4.30
2022-12-06T10:37:22.249Z,3.15
2022-12-06T10:39:57.556Z,3.92
2022-12-06T10:42:28.358Z,4.47
2022-12-06T10:45:37.329Z,5.90
2022-12-06T10:48:09.873Z,2.42
2022-12-06T10:50:40.112Z,6.28
2022-12-06T10:53:12.970Z,3.67
2022-12-06T10:55:45.020Z,3.60
2022-12-06T10:58:18.557Z,3.67
2022-12-06T11:00:58.182Z,2.95
2022-12-06T11:03:38.949Z,2.63
2022-12-06T11:06:15.253Z,2.78
2022-12-06T11:08:42.795Z,2.63
2022-12-06T11:11:15.723Z,5.07
2022-12-06T11:13:47.710Z,3.63
2022-12-06T11:16:24.099Z,4.43
2022-12-06T11:18:52.371Z,1.90
2022-12-06T11:21:20.157Z,3.95
2022-12-06T11:23:59.835Z,4.47
2022-12-06T11:26:28.212Z,3.63
2022-12-06T11:29:10.191Z,3.30
2022-12-06T11:31:39.665Z,2.05
2022-12-06T11:34:14.358Z,4.78
2022-12-06T11:36:42.258Z,5.00
2022-12-06T11:39:11.793Z,2.22
2022-12-06T11:41:39.155Z,1.98
2022-12-06T11:44:06.696Z,4.25
2022-12-06T11:46:34.012Z,3.38
2022-12-06T11:49:21.630Z,4.38
2022-12-06T11:51:50.397Z,3.05
2022-12-06T11:54:27.347Z,3.10
2022-12-06T11:56:57.796Z,4.13
2022-12-06T11:59:34.626Z,7.88
2022-12-06T12:02:04.216Z,5.97
2022-12-06T12:04:35.543Z,3.03
2022-12-06T12:07:11.914Z,3.83
2022-12-06T12:09:45.120Z,7.18
2022-12-06T12:12:23.880Z,1.90
2022-12-06T12:14:56.132Z,3.00
2022-12-06T12:17:24.516Z,4.78
2022-12-06T12:19:53.226Z,4.40
2022-12-06T12:22:24.142Z,5.25
2022-12-06T12:27:53.586Z,3.15
2022-12-06T12:30:27.112Z,3.10
2022-12-06T12:33:06.614Z,4.30
2022-12-06T12:35:47.570Z,14.15
2022-12-06T12:38:27.579Z,3.95
2022-12-06T12:41:01.436Z,2.30
2022-12-06T12:43:32.794Z,4.28
2022-12-06T12:46:12.369Z,3.20
2022-12-06T12:48:40.617Z,1.58
2022-12-06T12:51:21.030Z,2.78
2022-12-06T12:53:51.969Z,5.57
2022-12-06T12:56:20.660Z,1.77
2022-12-06T12:58:49.755Z,4.00
2022-12-06T13:01:26.337Z,1.95
2022-12-06T13:03:57.307Z,3.08
2022-12-06T13:06:34.050Z,1.75
2022-12-06T13:09:02.702Z,4.97
2022-12-06T13:11:30.196Z,2.83
2022-12-06T13:13:59.108Z,3.03
2022-12-06T13:16:29.175Z,3.28
2022-12-06T13:18:58.308Z,7.32
2022-12-06T13:21:28.933Z,4.30
2022-12-06T13:24:01.742Z,3.55
2022-12-06T13:26:32.752Z,3.58
2022-12-06T13:29:01.970Z,2.67
2022-12-06T13:31:33.543Z,1.27
2022-12-06T13:34:07.392Z,3.63
2022-12-06T13:36:35.511Z,3.22
2022-12-06T13:39:21.292Z,3.42
2022-12-06T13:42:25.978Z,1.83
2022-12-06T13:44:59.417Z,1.80
2022-12-06T13:47:29.417Z,2.42
2022-12-06T13:49:57.957Z,2.03
2022-12-06T13:52:43.625Z,3.58
2022-12-06T13:55:26.969Z,3.03
2022-12-06T13:58:02.756Z,2.97
2022-12-06T14:00:30.033Z,3.95
2022-12-06T14:02:57.368Z,2.72
2022-12-06T14:05:43.405Z,4.20
2022-12-06T14:08:12.516Z,4.60
2022-12-06T14:10:39.762Z,2.30
2022-12-06T14:13:07.379Z,2.22
2022-12-06T14:15:38.786Z,3.92
2022-12-06T14:18:12.824Z,3.83
2022-12-06T14:20:42.241Z,3.55
2022-12-06T14:23:26.557Z,3.47
2022-12-06T14:26:11.661Z,4.47
2022-12-06T14:28:38.960Z,3.28
2022-12-06T14:31:07.447Z,3.53
2022-12-06T14:33:39.545Z,9.30
2022-12-06T14:36:10.744Z,3.08
2022-12-06T14:38:41.601Z,4.18
2022-12-06T14:41:36.919Z,5.57
2022-12-06T14:44:15.816Z,4.38
2022-12-06T14:46:44.047Z,4.65
2022-12-06T14:49:50.490Z,3.00
2022-12-06T14:52:18.369Z,5.78
2022-12-06T14:54:45.858Z,3.80
2022-12-06T14:57:25.129Z,9.43
2022-12-06T15:00:15.272Z,4.97
2022-12-06T15:03:04.533Z,4.53
2022-12-06T15:05:33.021Z,5.30
2022-12-06T15:08:00.755Z,3.83
2022-12-06T15:10:32.810Z,5.60
2022-12-06T15:13:15.625Z,4.53
2022-12-06T15:15:45.231Z,7.93
2022-12-06T15:18:14.552Z,4.72
2022-12-06T15:20:41.973Z,6.68
2022-12-06T15:23:27.883Z,5.63
2022-12-06T15:25:55.380Z,46.72
2022-12-06T15:28:22.951Z,28.38
2022-12-06T15:30:53.914Z,75.40
2022-12-06T15:33:23.156Z,38.90
2022-12-06T15:35:51.895Z,52.13
2022-12-06T15:38:19.715Z,9.68
2022-12-06T15:40:49.013Z,18.20
2022-12-06T15:43:29.064Z,10.98
2022-12-06T15:45:57.495Z,3.22
2022-12-06T15:48:25.007Z,1.27
2022-12-06T15:50:52.613Z,2.10
2022-12-06T15:53:23.588Z,2.25
2022-12-06T15:55:51.442Z,2.25
2022-12-06T15:58:21.164Z,3.10
2022-12-06T16:00:48.458Z,4.18
2022-12-06T16:03:15.804Z,2.13
2022-12-06T16:05:43.526Z,3.55
2022-12-06T16:08:10.847Z,2.47
2022-12-06T16:11:10.398Z,2.35
2022-12-06T16:13:26.259Z,2.42
2022-12-06T16:15:53.766Z,1.40
2022-12-06T16:18:21.418Z,2.47
2022-12-06T16:20:48.948Z,3.72
2022-12-06T16:24:11.281Z,3.78
2022-12-06T16:26:27.069Z,4.97
2022-12-06T16:28:54.603Z,3.58
2022-12-06T16:31:22.091Z,2.95
2022-12-06T16:33:49.892Z,2.00
2022-12-06T16:36:20.051Z,2.65
2022-12-06T16:38:48.186Z,2.25
2022-12-06T16:41:28.946Z,2.95
2022-12-06T16:43:56.846Z,2.17
2022-12-06T16:46:31.350Z,4.32
2022-12-06T16:49:22.243Z,2.67
2022-12-06T16:51:48.471Z,3.40
2022-12-06T16:54:16.279Z,2.95
2022-12-06T16:56:44.138Z,2.67
2022-12-06T16:59:14.771Z,3.53
2022-12-06T17:01:51.489Z,2.38
2022-12-06T17:04:19.216Z,2.47
2022-12-06T17:06:50.474Z,4.75
2022-12-06T17:09:17.976Z,4.78
2022-12-06T17:12:04.547Z,2.03
2022-12-06T17:14:31.934Z,2.95
2022-12-06T17:17:04.262Z,3.13
2022-12-06T17:19:33.262Z,3.90
2022-12-06T17:22:06.278Z,3.38
2022-12-06T17:24:33.962Z,4.30
2022-12-06T17:27:01.299Z,5.78
2022-12-06T17:29:28.774Z,6.57
2022-12-06T17:31:56.390Z,3.45
2022-12-06T17:34:26.067Z,3.42
2022-12-06T17:36:53.941Z,2.92
2022-12-06T17:39:21.611Z,6.13
2022-12-06T17:42:07.876Z,6.30
2022-12-06T17:44:35.202Z,4.25
2022-12-06T17:47:02.981Z,4.20
2022-12-06T17:49:30.335Z,5.93
2022-12-06T17:51:57.689Z,4.32
2022-12-06T17:54:25.471Z,6.03
2022-12-06T17:56:53.915Z,5.00
2022-12-06T17:59:25.259Z,3.47
2022-12-06T18:04:41.510Z,3.25
2022-12-06T18:07:08.866Z,3.05
2022-12-06T18:09:36.361Z,2.75
2022-12-06T18:12:04.130Z,4.47
2022-12-06T18:14:31.470Z,3.92
2022-12-06T18:16:58.787Z,22.45
2022-12-06T18:19:26.257Z,10.65
2022-12-06T18:21:53.770Z,42.35
2022-12-06T18:24:23.951Z,14.75
2022-12-06T18:26:54.482Z,7.90
2022-12-06T18:29:24.832Z,4.00
2022-12-06T18:31:52.703Z,3.95
2022-12-06T18:34:20.291Z,5.13
2022-12-06T18:36:48.062Z,4.47
2022-12-06T18:39:16.659Z,3.85
2022-12-06T18:41:44.930Z,4.95
2022-12-06T18:44:13.077Z,5.93
2022-12-06T18:46:42.878Z,5.10
2022-12-06T18:49:11.339Z,6.60
2022-12-06T18:51:39.321Z,3.80
2022-12-06T18:54:07.098Z,5.72
2022-12-06T18:56:35.042Z,2.22
2022-12-06T18:59:03.191Z,3.33
2022-12-06T19:01:32.269Z,9.00
2022-12-06T19:04:01.120Z,3.38
2022-12-06T19:06:29.858Z,5.25
2022-12-06T19:08:58.393Z,4.05
2022-12-06T19:11:25.872Z,3.22
2022-12-06T19:13:53.400Z,5.88
2022-12-06T19:16:23.077Z,5.32
2022-12-06T19:18:51.149Z,3.13
2022-12-06T19:21:18.466Z,3.35
2022-12-06T19:23:46.711Z,4.55
2022-12-06T19:26:14.308Z,4.60
2022-12-06T19:28:42.350Z,4.60
2022-12-06T19:31:11.052Z,5.18
2022-12-06T19:33:40.107Z,6.88
2022-12-06T19:36:08.396Z,3.22
2022-12-06T19:38:36.277Z,3.38
2022-12-06T19:41:04.542Z,3.97
2022-12-06T19:43:50.455Z,3.88
2022-12-06T19:46:22.226Z,4.82
2022-12-06T19:48:49.816Z,4.25
2022-12-06T19:51:17.141Z,2.35
2022-12-06T19:53:44.664Z,4.82
2022-12-06T19:56:13.845Z,2.65
2022-12-06T19:58:41.374Z,4.72
2022-12-06T20:01:09.772Z,2.42
2022-12-06T20:03:38.208Z,2.65
2022-12-06T20:06:12.886Z,3.97
2022-12-06T20:08:47.366Z,2.63
2022-12-06T20:11:35.153Z,1.73
2022-12-06T20:14:03.595Z,4.70
2022-12-06T20:16:30.953Z,3.08
2022-12-06T20:18:58.272Z,3.67
2022-12-06T20:21:26.059Z,2.20
2022-12-06T20:23:53.606Z,3.15
2022-12-06T20:26:21.927Z,3.35
2022-12-06T20:28:49.704Z,4.90
2022-12-06T20:31:21.393Z,4.43
2022-12-06T20:33:48.933Z,15.77
2022-12-06T20:36:20.903Z,4.93
2022-12-06T20:38:51.018Z,12.80
2022-12-06T20:41:19.755Z,9.57
2022-12-06T20:43:47.207Z,3.83
2022-12-06T20:46:32.815Z,10.20
2022-12-06T20:49:05.870Z,3.38
2022-12-06T20:51:35.808Z,3.33
2022-12-06T20:54:04.798Z,4.32
2022-12-06T20:56:33.483Z,6.57
2022-12-06T20:59:02.280Z,6.22
2022-12-06T21:01:31.269Z,3.92
2022-12-06T21:03:58.799Z,6.47
2022-12-06T21:06:26.156Z,5.35
2022-12-06T21:08:53.939Z,5.05
2022-12-06T21:11:23.696Z,9.65
2022-12-06T21:13:55.018Z,4.88
2022-12-06T21:16:23.880Z,3.80
2022-12-06T21:18:55.388Z,7.75
2022-12-06T21:21:28.387Z,4.50
2022-12-06T21:23:55.845Z,6.63
2022-12-06T21:26:23.234Z,4.00
2022-12-06T21:28:53.744Z,5.13
2022-12-06T21:31:21.484Z,5.35
2022-12-06T21:33:48.831Z,2.67
2022-12-06T21:36:16.347Z,5.03
2022-12-06T21:38:43.782Z,4.38
2022-12-06T21:41:13.669Z,3.85
2022-12-06T21:43:41.244Z,3.33
2022-12-06T21:46:12.272Z,3.65
2022-12-06T21:48:39.991Z,3.08
2022-12-06T21:51:08.805Z,3.05
2022-12-06T21:53:36.294Z,2.28
2022-12-06T21:56:07.642Z,4.22
2022-12-06T21:58:35.386Z,2.80
2022-12-06T22:01:09.692Z,4.13
2022-12-06T22:03:37.350Z,6.25
2022-12-06T22:06:08.182Z,3.90
2022-12-06T22:08:35.602Z,3.88
2022-12-06T22:11:06.972Z,3.30
2022-12-06T22:13:34.571Z,6.30
2022-12-06T22:16:03.184Z,6.57
2022-12-06T22:18:32.581Z,5.18
2022-12-06T22:21:04.420Z,5.40
2022-12-06T22:23:32.489Z,7.63
2022-12-06T22:26:00.508Z,9.13
2022-12-06T22:28:27.997Z,7.00
2022-12-06T22:30:55.343Z,7.28
2022-12-06T22:33:22.810Z,5.32
2022-12-06T22:35:50.040Z,5.75
2022-12-06T22:38:17.377Z,2.70
2022-12-06T22:40:44.663Z,5.70
2022-12-06T22:43:11.951Z,3.30
2022-12-06T22:45:39.227Z,5.53
2022-12-06T22:48:06.600Z,1.88
2022-12-06T22:50:33.919Z,4.50
2022-12-06T22:53:01.305Z,2.33
2022-12-06T22:55:28.737Z,3.45
2022-12-06T22:57:56.233Z,5.03
2022-12-06T23:00:24.212Z,3.33
2022-12-06T23:02:53.337Z,4.15
2022-12-06T23:05:20.740Z,2.40
2022-12-06T23:07:48.435Z,3.92
2022-12-06T23:10:18.840Z,3.78
2022-12-06T23:12:46.267Z,2.72
2022-12-06T23:15:13.478Z,2.10
2022-12-06T23:17:41.584Z,3.05
2022-12-06T23:20:09.343Z,3.10
2022-12-06T23:22:36.738Z,3.83
2022-12-06T23:25:04.073Z,2.83
2022-12-06T23:27:31.442Z,4.45
2022-12-06T23:29:58.987Z,3.05
2022-12-06T23:32:26.477Z,3.45
2022-12-06T23:34:53.743Z,4.07
2022-12-06T23:37:21.050Z,5.78
2022-12-06T23:39:48.449Z,5.45
2022-12-06T23:42:15.876Z,3.83
2022-12-06T23:44:43.095Z,5.00
2022-12-06T23:47:10.491Z,8.05
2022-12-06T23:49:37.801Z,6.25
2022-12-06T23:52:05.363Z,6.22
2022-12-06T23:54:32.742Z,4.63
2022-12-06T23:57:00.042Z,6.72
2022-12-06T23:59:27.546Z,4.75
